Canoinhas, Brazil
Current Conditions -  °F | °C
As of 11:00 AM on Friday 28 Nov 2014 (Local Time) from SBCT Reporting Station
Broken Clouds Broken Clouds  
Wind Chill: 70°   Ceiling: 2100
Heat Index: 70°   Visibility: 6mi
Dew Point: 59°   Wind: 9mph
Humidity: 68%   Direction: 120°ESE
Pressure: 30.15"   Gusts: NA
Location:  26.18°S, 50.4°W
Report Text: SBCT 281300Z 12008KT 9999 SCT013 BKN021 21/15 Q1021
Loading
Personal Weather Stations






























Interactive Weather Map New forecast layout! Learn more

10-Day Weather Forecast

Advertisements
Track Severe Weather on mobile